Time;durP1;ratioP1;P1;durP2;ratioP2;P2;SDS_P1;SDS_P2;PMS_P1;PMS_P2;Temp;Humidity;BMP_temperature;BMP_pressure;BME280_temperature;BME280_humidity;BME280_pressure;Samples;Min_cycle;Max_cycle;Signal;HPM_P1;HPM_P2
2022/05/22 00:02:18;;;;;;;20.40;7.75;;;;;;;;;;4931423;29;20028;-63
2022/05/22 00:04:44;;;;;;;20.42;7.63;;;;;;;;;;4931609;29;20024;-64
2022/05/22 00:07:10;;;;;;;18.95;7.80;;;;;;;;;;4931243;29;20030;-63
2022/05/22 00:09:36;;;;;;;18.20;8.10;;;;;;;;;;4931468;29;20026;-64
2022/05/22 00:12:03;;;;;;;18.90;8.07;;;;;;;;;;4996794;28;20036;-64
2022/05/22 00:14:29;;;;;;;22.10;9.75;;;;;;;;;;4931225;29;20076;-64
2022/05/22 00:16:55;;;;;;;21.58;8.35;;;;;;;;;;4931122;29;20484;-64
2022/05/22 00:19:26;;;;;;;23.63;8.93;;;;;;;;;;4931153;29;20028;-64
2022/05/22 00:21:52;;;;;;;21.20;7.80;;;;;;;;;;4931218;29;20024;-64
2022/05/22 00:24:23;;;;;;;18.85;8.90;;;;;;;;;;4931162;29;20024;-64
2022/05/22 00:26:49;;;;;;;20.65;8.32;;;;;;;;;;4931302;29;20534;-64
2022/05/22 00:29:17;;;;;;;17.63;8.18;;;;;;;;;;4930998;29;20081;-64
2022/05/22 00:31:43;;;;;;;18.65;7.45;;;;;;;;;;4931078;29;20533;-64
2022/05/22 00:34:09;;;;;;;17.73;7.90;;;;;;;;;;4931059;29;20122;-64
2022/05/22 00:36:35;;;;;;;17.90;8.13;;;;;;;;;;4930913;29;20495;-63
2022/05/22 00:39:01;;;;;;;16.88;7.55;;;;;;;;;;4930738;29;20091;-64
2022/05/22 00:41:28;;;;;;;18.52;7.88;;;;;;;;;;4930921;29;20034;-64
2022/05/22 00:43:54;;;;;;;19.73;9.88;;;;;;;;;;4930938;29;20032;-64
2022/05/22 00:46:21;;;;;;;21.30;9.25;;;;;;;;;;4960184;23;20055;-65
2022/05/22 00:48:49;;;;;;;23.60;7.53;;;;;;;;;;4933497;28;20395;-65
2022/05/22 00:51:20;;;;;;;17.30;7.63;;;;;;;;;;4951191;29;20118;-66
2022/05/22 00:53:49;;;;;;;17.77;7.68;;;;;;;;;;4951103;28;20085;-65
2022/05/22 00:56:18;;;;;;;19.45;7.72;;;;;;;;;;4969004;28;20020;-66
2022/05/22 00:58:45;;;;;;;17.75;8.15;;;;;;;;;;5017122;28;20031;-65
2022/05/22 01:01:11;;;;;;;17.25;7.88;;;;;;;;;;4953674;29;20095;-65
2022/05/22 01:03:38;;;;;;;19.20;8.68;;;;;;;;;;4954403;29;20073;-65
2022/05/22 01:06:04;;;;;;;21.27;9.07;;;;;;;;;;4954489;29;20032;-65
2022/05/22 01:08:31;;;;;;;17.98;8.65;;;;;;;;;;5021127;28;20391;-64
2022/05/22 01:11:05;;;;;;;18.30;7.88;;;;;;;;;;4954540;28;20038;-66
2022/05/22 01:13:37;;;;;;;18.15;8.50;;;;;;;;;;4954555;29;20162;-65
2022/05/22 01:16:04;;;;;;;22.45;8.63;;;;;;;;;;4954176;29;20526;-65
2022/05/22 01:18:30;;;;;;;20.92;8.00;;;;;;;;;;4954342;28;20068;-65
2022/05/22 01:20:57;;;;;;;23.25;8.45;;;;;;;;;;4954548;28;20027;-66
2022/05/22 01:23:23;;;;;;;18.13;8.70;;;;;;;;;;4954248;29;20019;-65
2022/05/22 01:25:50;;;;;;;22.58;8.65;;;;;;;;;;4954384;28;20430;-64
2022/05/22 01:28:18;;;;;;;19.90;9.00;;;;;;;;;;4954017;29;20051;-65
2022/05/22 01:30:44;;;;;;;18.10;8.88;;;;;;;;;;4954297;29;20035;-66
2022/05/22 01:33:10;;;;;;;18.40;8.45;;;;;;;;;;4954243;29;20039;-66
2022/05/22 01:35:36;;;;;;;19.70;8.60;;;;;;;;;;5020965;28;20406;-65
2022/05/22 01:38:03;;;;;;;19.67;8.43;;;;;;;;;;4953947;29;20109;-66
2022/05/22 01:40:29;;;;;;;20.60;9.02;;;;;;;;;;4954156;28;20031;-66
2022/05/22 01:42:55;;;;;;;21.50;8.93;;;;;;;;;;4954125;28;20517;-65
2022/05/22 01:45:23;;;;;;;20.88;9.80;;;;;;;;;;4953860;28;20027;-65
2022/05/22 01:47:50;;;;;;;19.58;8.93;;;;;;;;;;4953920;29;20528;-65
2022/05/22 01:50:17;;;;;;;18.95;8.90;;;;;;;;;;5020765;28;20115;-65
2022/05/22 01:52:43;;;;;;;18.05;9.15;;;;;;;;;;5020441;28;20034;-66
2022/05/22 01:55:09;;;;;;;17.63;8.45;;;;;;;;;;4954105;28;20387;-66
2022/05/22 01:57:35;;;;;;;21.10;9.52;;;;;;;;;;4953542;29;20028;-66
2022/05/22 02:00:02;;;;;;;18.55;8.90;;;;;;;;;;4953838;28;20032;-65
2022/05/22 02:02:28;;;;;;;21.83;9.80;;;;;;;;;;4953685;29;20403;-66
2022/05/22 02:04:54;;;;;;;24.05;13.07;;;;;;;;;;4953429;28;20023;-67
2022/05/22 02:10:05;;;;;;;19.83;10.07;;;;;;;;;;4953686;29;20080;-66
2022/05/22 02:12:31;;;;;;;19.15;9.23;;;;;;;;;;5020167;28;20034;-66
2022/05/22 02:14:57;;;;;;;21.42;9.82;;;;;;;;;;4953604;29;20038;-66
2022/05/22 02:17:23;;;;;;;20.75;10.02;;;;;;;;;;4953539;29;20023;-65
2022/05/22 02:19:49;;;;;;;18.85;10.15;;;;;;;;;;4953400;29;20582;-66
2022/05/22 02:22:15;;;;;;;20.13;10.80;;;;;;;;;;5019977;28;20205;-66
2022/05/22 02:24:41;;;;;;;22.23;10.75;;;;;;;;;;4953506;29;20023;-66
2022/05/22 02:27:07;;;;;;;22.88;10.65;;;;;;;;;;4953152;29;20043;-66
2022/05/22 02:29:34;;;;;;;22.92;10.75;;;;;;;;;;4953170;28;20118;-66
2022/05/22 02:32:00;;;;;;;20.38;10.85;;;;;;;;;;4953384;29;20027;-64
2022/05/22 02:34:26;;;;;;;22.10;10.95;;;;;;;;;;4953193;29;20077;-67
2022/05/22 02:36:52;;;;;;;21.13;11.25;;;;;;;;;;4953108;28;20098;-66
2022/05/22 02:39:18;;;;;;;22.88;13.10;;;;;;;;;;4953025;28;20027;-66
2022/05/22 02:41:45;;;;;;;22.92;11.15;;;;;;;;;;4953757;29;20558;-66
2022/05/22 02:44:11;;;;;;;22.25;11.32;;;;;;;;;;4953754;28;20023;-65
2022/05/22 02:46:37;;;;;;;23.15;11.02;;;;;;;;;;5019063;28;20024;-65
2022/05/22 02:49:03;;;;;;;21.85;11.15;;;;;;;;;;4952686;29;20027;-65
2022/05/22 02:51:29;;;;;;;20.77;11.15;;;;;;;;;;4953068;29;20502;-65
2022/05/22 02:53:55;;;;;;;23.17;11.02;;;;;;;;;;4952966;29;20031;-65
2022/05/22 02:56:23;;;;;;;19.52;11.40;;;;;;;;;;4952899;29;20027;-66
2022/05/22 02:58:49;;;;;;;20.58;11.48;;;;;;;;;;4952800;29;20077;-66
2022/05/22 03:01:15;;;;;;;21.05;11.32;;;;;;;;;;4952711;29;20423;-65
2022/05/22 03:03:41;;;;;;;23.42;11.50;;;;;;;;;;5019214;28;20109;-65
2022/05/22 03:08:52;;;;;;;20.90;11.90;;;;;;;;;;4952773;29;20058;-65
2022/05/22 03:11:18;;;;;;;23.52;11.82;;;;;;;;;;4952939;29;20091;-66
2022/05/22 03:13:44;;;;;;;20.88;11.13;;;;;;;;;;5018993;28;20184;-65
2022/05/22 03:16:10;;;;;;;20.42;10.38;;;;;;;;;;5018587;28;20134;-65
2022/05/22 03:18:36;;;;;;;23.77;12.18;;;;;;;;;;5018591;28;20067;-65
2022/05/22 03:21:02;;;;;;;23.13;11.05;;;;;;;;;;5018600;28;20150;-65
2022/05/22 03:23:28;;;;;;;25.90;12.90;;;;;;;;;;5018063;28;20069;-66
2022/05/22 03:25:54;;;;;;;21.45;12.38;;;;;;;;;;4952422;29;20486;-65
2022/05/22 03:28:23;;;;;;;20.58;11.82;;;;;;;;;;4952350;28;20035;-65
2022/05/22 03:30:49;;;;;;;23.20;11.63;;;;;;;;;;4952495;28;20078;-66
2022/05/22 03:33:15;;;;;;;23.20;12.52;;;;;;;;;;4952290;29;20023;-66
2022/05/22 03:35:41;;;;;;;23.10;11.98;;;;;;;;;;4952217;29;20073;-66
2022/05/22 03:38:07;;;;;;;22.63;12.10;;;;;;;;;;4952022;29;20027;-65
2022/05/22 03:40:33;;;;;;;21.50;10.93;;;;;;;;;;5018218;28;20027;-65
2022/05/22 03:43:00;;;;;;;22.38;11.98;;;;;;;;;;4951872;28;20072;-66
2022/05/22 03:45:26;;;;;;;21.55;11.70;;;;;;;;;;4951932;28;20031;-65
2022/05/22 03:47:52;;;;;;;21.70;11.93;;;;;;;;;;4951790;29;20042;-66
2022/05/22 03:50:18;;;;;;;22.35;12.38;;;;;;;;;;4952052;29;20479;-65
2022/05/22 03:52:47;;;;;;;24.10;12.82;;;;;;;;;;4952005;29;20376;-66
2022/05/22 03:55:15;;;;;;;21.73;12.43;;;;;;;;;;5018211;28;20122;-66
2022/05/22 03:57:41;;;;;;;24.63;12.13;;;;;;;;;;4951667;28;20031;-66
2022/05/22 04:00:09;;;;;;;22.63;13.38;;;;;;;;;;4951886;28;20027;-66
2022/05/22 04:02:35;;;;;;;25.80;11.88;;;;;;;;;;4952039;29;20124;-66
2022/05/22 04:05:02;;;;;;;22.50;12.43;;;;;;;;;;4951754;28;20023;-67
2022/05/22 04:07:28;;;;;;;25.83;13.63;;;;;;;;;;4951512;28;20507;-66
2022/05/22 04:09:54;;;;;;;20.88;11.77;;;;;;;;;;4951923;29;20031;-66
2022/05/22 04:12:20;;;;;;;23.02;13.18;;;;;;;;;;4951708;28;20487;-65
2022/05/22 04:14:46;;;;;;;25.92;11.48;;;;;;;;;;4951855;29;20023;-67
2022/05/22 04:17:12;;;;;;;20.15;12.27;;;;;;;;;;4951337;29;20483;-65
2022/05/22 04:19:38;;;;;;;23.35;12.15;;;;;;;;;;4951581;28;20035;-66
2022/05/22 04:22:04;;;;;;;20.83;12.07;;;;;;;;;;5017606;28;20050;-65
2022/05/22 04:27:15;;;;;;;21.52;11.77;;;;;;;;;;4951450;29;20034;-65
2022/05/22 04:29:41;;;;;;;20.38;11.40;;;;;;;;;;4951591;29;20027;-66
2022/05/22 04:32:07;;;;;;;25.85;12.77;;;;;;;;;;5017297;28;20718;-65
2022/05/22 04:34:33;;;;;;;22.33;11.48;;;;;;;;;;4950394;28;20035;-66
2022/05/22 04:36:59;;;;;;;20.58;11.32;;;;;;;;;;5017444;28;20027;-65
2022/05/22 04:39:25;;;;;;;22.05;12.25;;;;;;;;;;4951293;29;20547;-66
2022/05/22 04:41:51;;;;;;;21.10;12.90;;;;;;;;;;4951300;28;20157;-66
2022/05/22 04:44:17;;;;;;;22.92;12.30;;;;;;;;;;5017464;28;20046;-65
2022/05/22 04:46:43;;;;;;;22.08;11.85;;;;;;;;;;4951345;28;20042;-65
2022/05/22 04:49:09;;;;;;;22.55;12.00;;;;;;;;;;4951096;28;20102;-66
2022/05/22 04:51:35;;;;;;;23.48;11.63;;;;;;;;;;4951272;29;20027;-65
2022/05/22 04:54:01;;;;;;;21.98;12.20;;;;;;;;;;4951496;28;20422;-66
2022/05/22 04:56:27;;;;;;;23.48;11.80;;;;;;;;;;4951067;29;20031;-66
2022/05/22 04:58:53;;;;;;;21.88;12.20;;;;;;;;;;4950951;29;20027;-66
2022/05/22 05:01:19;;;;;;;20.90;11.68;;;;;;;;;;4951058;29;20031;-66
2022/05/22 05:03:45;;;;;;;21.02;12.00;;;;;;;;;;4951187;29;20027;-66
2022/05/22 05:06:11;;;;;;;20.10;11.35;;;;;;;;;;4951137;29;20442;-65
2022/05/22 05:08:37;;;;;;;22.48;11.68;;;;;;;;;;4950881;29;20099;-65
2022/05/22 05:11:03;;;;;;;22.52;11.75;;;;;;;;;;5017152;28;20035;-65
2022/05/22 05:13:29;;;;;;;20.23;10.68;;;;;;;;;;4951137;28;20494;-66
2022/05/22 05:16:04;;;;;;;24.40;10.80;;;;;;;;;;4951028;28;20027;-66
2022/05/22 05:18:30;;;;;;;21.67;10.43;;;;;;;;;;4950678;29;20032;-66
2022/05/22 05:20:58;;;;;;;21.50;10.38;;;;;;;;;;5016875;28;20032;-65
2022/05/22 05:23:25;;;;;;;20.52;9.77;;;;;;;;;;4951138;28;20019;-65
2022/05/22 05:25:51;;;;;;;23.75;11.70;;;;;;;;;;5016805;28;20073;-66
2022/05/22 05:28:17;;;;;;;25.05;13.70;;;;;;;;;;5016860;28;20069;-65
2022/05/22 05:30:43;;;;;;;19.10;10.60;;;;;;;;;;4950401;29;20422;-66
2022/05/22 05:33:09;;;;;;;22.63;12.45;;;;;;;;;;4950680;29;20486;-66
2022/05/22 05:35:35;;;;;;;20.30;9.95;;;;;;;;;;4950527;29;20024;-66
2022/05/22 05:38:01;;;;;;;22.00;10.88;;;;;;;;;;4950642;29;20074;-66
2022/05/22 05:40:27;;;;;;;22.33;9.85;;;;;;;;;;5016916;28;20050;-65
2022/05/22 05:42:54;;;;;;;24.50;10.77;;;;;;;;;;4950943;28;20486;-66
2022/05/22 05:45:20;;;;;;;21.08;9.38;;;;;;;;;;4950488;28;20553;-66
2022/05/22 05:47:47;;;;;;;21.48;9.73;;;;;;;;;;4953780;29;20046;-65
2022/05/22 05:50:13;;;;;;;20.02;8.65;;;;;;;;;;5020424;28;20023;-66
2022/05/22 05:52:39;;;;;;;18.15;8.40;;;;;;;;;;4953955;29;20030;-65
2022/05/22 05:55:05;;;;;;;17.98;7.70;;;;;;;;;;4953680;28;20027;-65
2022/05/22 05:57:31;;;;;;;20.52;7.97;;;;;;;;;;4953704;28;20073;-66
2022/05/22 05:59:57;;;;;;;18.27;8.38;;;;;;;;;;5020114;28;20070;-66
2022/05/22 06:02:24;;;;;;;22.58;8.57;;;;;;;;;;4953804;28;20520;-66
2022/05/22 06:04:50;;;;;;;19.05;8.13;;;;;;;;;;4953622;29;20106;-65
2022/05/22 06:07:16;;;;;;;21.17;9.32;;;;;;;;;;4953266;29;20027;-66
2022/05/22 06:09:42;;;;;;;22.85;12.23;;;;;;;;;;4953557;28;20493;-66
2022/05/22 06:12:08;;;;;;;19.75;9.57;;;;;;;;;;4953394;29;20039;-66
2022/05/22 06:14:34;;;;;;;17.55;8.40;;;;;;;;;;4953589;29;20507;-66
2022/05/22 06:17:00;;;;;;;20.25;8.80;;;;;;;;;;4953219;29;20041;-67
2022/05/22 06:22:14;;;;;;;18.15;7.53;;;;;;;;;;4953334;29;20038;-65
2022/05/22 06:24:40;;;;;;;18.88;8.80;;;;;;;;;;4953364;29;20416;-66
2022/05/22 06:27:06;;;;;;;20.23;8.95;;;;;;;;;;5019509;28;20062;-66
2022/05/22 06:29:31;;;;;;;20.65;8.10;;;;;;;;;;4953058;28;20422;-66
2022/05/22 06:31:57;;;;;;;18.20;7.57;;;;;;;;;;4953228;28;20079;-65
2022/05/22 06:34:24;;;;;;;17.42;7.43;;;;;;;;;;4953392;29;20085;-65
2022/05/22 06:36:51;;;;;;;17.67;7.68;;;;;;;;;;4952864;28;20545;-65
2022/05/22 06:42:02;;;;;;;16.92;7.53;;;;;;;;;;4953223;29;20564;-65
2022/05/22 06:44:28;;;;;;;18.20;7.88;;;;;;;;;;5019468;28;20085;-65
2022/05/22 06:46:54;;;;;;;17.20;7.85;;;;;;;;;;4975692;23;20134;-61
2022/05/22 06:49:20;;;;;;;20.02;10.25;;;;;;;;;;4952234;28;20031;-64
2022/05/22 06:51:47;;;;;;;17.65;7.95;;;;;;;;;;4953085;28;20110;-65
2022/05/22 06:54:13;;;;;;;21.42;7.82;;;;;;;;;;4935730;28;20039;-65
2022/05/22 06:56:38;;;;;;;19.30;7.80;;;;;;;;;;4952045;28;20050;-65
2022/05/22 06:59:04;;;;;;;19.15;8.80;;;;;;;;;;4951877;28;20034;-64
2022/05/22 07:01:30;;;;;;;18.70;8.98;;;;;;;;;;4952983;28;20646;-65
2022/05/22 07:03:56;;;;;;;20.50;7.65;;;;;;;;;;4952637;28;20027;-63
2022/05/22 07:06:22;;;;;;;20.00;9.20;;;;;;;;;;4953082;28;20030;-64
2022/05/22 07:08:48;;;;;;;15.90;7.75;;;;;;;;;;4952402;28;20490;-64
2022/05/22 07:13:59;;;;;;;16.35;7.80;;;;;;;;;;4952831;29;20188;-65
2022/05/22 07:16:25;;;;;;;17.88;7.93;;;;;;;;;;5019273;28;20502;-61
2022/05/22 07:18:51;;;;;;;15.52;7.63;;;;;;;;;;4952827;29;20030;-63
2022/05/22 07:21:17;;;;;;;17.40;7.90;;;;;;;;;;4952864;28;20023;-64
2022/05/22 07:23:43;;;;;;;15.15;7.32;;;;;;;;;;5018908;28;20122;-63
2022/05/22 07:26:09;;;;;;;17.33;7.63;;;;;;;;;;5018724;28;20065;-63
2022/05/22 07:28:35;;;;;;;15.52;7.82;;;;;;;;;;4952555;28;20390;-63
2022/05/22 07:31:01;;;;;;;16.77;8.20;;;;;;;;;;5018893;28;20058;-64
2022/05/22 07:33:27;;;;;;;19.05;7.68;;;;;;;;;;4952857;29;20027;-63
2022/05/22 07:35:57;;;;;;;17.75;8.05;;;;;;;;;;4952470;29;20077;-61
2022/05/22 07:38:24;;;;;;;16.83;7.47;;;;;;;;;;4937015;28;20539;-63
2022/05/22 07:40:51;;;;;;;17.55;7.78;;;;;;;;;;4945804;29;20042;-64
2022/05/22 07:43:17;;;;;;;19.30;8.50;;;;;;;;;;5018366;28;20030;-63
2022/05/22 07:45:43;;;;;;;16.90;7.43;;;;;;;;;;5019455;28;20414;-64
2022/05/22 07:48:09;;;;;;;16.98;7.93;;;;;;;;;;5015744;28;20047;-65
2022/05/22 07:50:35;;;;;;;16.58;7.20;;;;;;;;;;4947628;29;20024;-64
2022/05/22 07:53:02;;;;;;;16.25;8.18;;;;;;;;;;5017978;28;20386;-64
2022/05/22 07:55:28;;;;;;;17.13;7.40;;;;;;;;;;4950507;29;20032;-63
2022/05/22 07:57:54;;;;;;;17.63;7.40;;;;;;;;;;4939848;28;20169;-61
2022/05/22 08:00:21;;;;;;;19.92;7.65;;;;;;;;;;4932895;28;20584;-63
2022/05/22 08:02:47;;;;;;;15.88;7.10;;;;;;;;;;4933031;28;20074;-64
2022/05/22 08:05:15;;;;;;;17.00;7.03;;;;;;;;;;4934168;28;20110;-63
2022/05/22 08:07:41;;;;;;;15.90;7.75;;;;;;;;;;4951905;29;20028;-63
2022/05/22 08:10:08;;;;;;;19.08;8.32;;;;;;;;;;5018677;28;20038;-62
2022/05/22 08:12:38;;;;;;;15.50;7.50;;;;;;;;;;5018405;28;20053;-59
2022/05/22 08:15:05;;;;;;;17.73;7.95;;;;;;;;;;4950679;28;20031;-59
2022/05/22 08:17:35;;;;;;;16.15;7.63;;;;;;;;;;4933715;28;20034;-59
2022/05/22 08:20:02;;;;;;;18.13;7.72;;;;;;;;;;4933290;28;20024;-62
2022/05/22 08:22:28;;;;;;;18.15;7.97;;;;;;;;;;4935393;28;20062;-61
2022/05/22 08:24:54;;;;;;;17.92;9.57;;;;;;;;;;4951805;28;20059;-61
2022/05/22 08:27:20;;;;;;;18.90;8.40;;;;;;;;;;4951559;29;20028;-61
2022/05/22 08:29:46;;;;;;;19.05;8.35;;;;;;;;;;4951735;29;20153;-57
2022/05/22 08:32:12;;;;;;;18.90;7.72;;;;;;;;;;4951559;29;20098;-61
2022/05/22 08:34:38;;;;;;;18.10;8.32;;;;;;;;;;4951803;28;20027;-59
2022/05/22 08:37:04;;;;;;;15.07;8.13;;;;;;;;;;4951479;28;20038;-58
2022/05/22 08:39:31;;;;;;;16.17;8.23;;;;;;;;;;5017217;28;20038;-55
2022/05/22 08:41:59;;;;;;;14.10;7.55;;;;;;;;;;4951374;28;20039;-61
2022/05/22 08:44:32;;;;;;;19.13;8.43;;;;;;;;;;4951333;28;20521;-62
2022/05/22 08:47:14;;;;;;;14.70;7.50;;;;;;;;;;4951062;29;20487;-56
2022/05/22 08:49:40;;;;;;;18.02;8.60;;;;;;;;;;5019344;28;20072;-60
2022/05/22 08:52:12;;;;;;;16.80;8.13;;;;;;;;;;4935861;28;20535;-59
2022/05/22 08:54:41;;;;;;;17.90;7.95;;;;;;;;;;4932200;28;20380;-56
2022/05/22 08:59:53;;;;;;;17.00;8.75;;;;;;;;;;4931875;28;19960;-58
2022/05/22 09:02:36;;;;;;;15.00;7.80;;;;;;;;;;4931840;28;20545;-61
2022/05/22 09:05:05;;;;;;;18.90;8.40;;;;;;;;;;4935810;28;20076;-60
2022/05/22 09:07:50;;;;;;;19.38;9.07;;;;;;;;;;4950953;29;20027;-61
2022/05/22 09:10:21;;;;;;;15.75;8.05;;;;;;;;;;4951241;28;20153;-61
2022/05/22 09:12:56;;;;;;;16.30;7.90;;;;;;;;;;4951148;29;20024;-56
2022/05/22 09:15:24;;;;;;;17.88;8.40;;;;;;;;;;5016965;28;20398;-61
2022/05/22 09:18:10;;;;;;;17.33;8.38;;;;;;;;;;5009170;28;20122;-61
2022/05/22 09:20:53;;;;;;;18.33;8.35;;;;;;;;;;4947871;28;20039;-60
2022/05/22 09:23:44;;;;;;;16.90;9.25;;;;;;;;;;4945436;28;20015;-61
2022/05/22 09:26:11;;;;;;;16.60;8.15;;;;;;;;;;4945203;29;20028;-61
2022/05/22 09:28:56;;;;;;;16.73;7.95;;;;;;;;;;4943015;28;20066;-63
2022/05/22 09:31:31;;;;;;;15.63;8.10;;;;;;;;;;4944142;28;20164;-59
2022/05/22 09:34:17;;;;;;;16.23;8.25;;;;;;;;;;5010936;28;20491;-61
2022/05/22 09:36:46;;;;;;;15.60;8.80;;;;;;;;;;4940966;28;20031;-59
2022/05/22 09:39:12;;;;;;;18.38;9.80;;;;;;;;;;5017823;28;20384;-58
2022/05/22 09:41:44;;;;;;;16.77;8.48;;;;;;;;;;5009880;28;20081;-61
2022/05/22 09:44:22;;;;;;;17.13;7.90;;;;;;;;;;4944138;28;20020;-62
2022/05/22 09:47:11;;;;;;;21.25;9.80;;;;;;;;;;4942284;28;20039;-57
2022/05/22 09:49:40;;;;;;;17.45;9.02;;;;;;;;;;5011147;28;20047;-61
2022/05/22 09:52:18;;;;;;;20.27;10.30;;;;;;;;;;4944392;28;20023;-60
2022/05/22 09:55:02;;;;;;;19.42;8.73;;;;;;;;;;4943378;29;20499;-62
2022/05/22 09:57:37;;;;;;;17.05;8.30;;;;;;;;;;4944595;29;20479;-61
2022/05/22 10:00:18;;;;;;;18.02;8.55;;;;;;;;;;4944834;28;20378;-62
2022/05/22 10:02:44;;;;;;;18.38;8.63;;;;;;;;;;4943224;28;20479;-62
2022/05/22 10:05:19;;;;;;;19.05;9.15;;;;;;;;;;4943551;28;20034;-62
2022/05/22 10:08:04;;;;;;;15.07;8.30;;;;;;;;;;4934605;28;20055;-59
2022/05/22 10:10:43;;;;;;;15.88;9.18;;;;;;;;;;4937446;28;20381;-62
2022/05/22 10:13:24;;;;;;;17.00;8.85;;;;;;;;;;4934783;28;20027;-59
2022/05/22 10:16:09;;;;;;;16.75;8.38;;;;;;;;;;4934553;28;20038;-60
2022/05/22 10:18:44;;;;;;;16.58;8.45;;;;;;;;;;4933983;28;20024;-60
2022/05/22 10:21:28;;;;;;;17.98;8.75;;;;;;;;;;4934243;28;20032;-58
2022/05/22 10:24:13;;;;;;;16.13;8.40;;;;;;;;;;5000526;28;20050;-59
2022/05/22 10:26:58;;;;;;;16.00;8.52;;;;;;;;;;4934369;28;20028;-57
2022/05/22 10:29:30;;;;;;;20.52;9.85;;;;;;;;;;4934225;28;20532;-60
2022/05/22 10:32:01;;;;;;;21.65;8.93;;;;;;;;;;4933655;28;20106;-59
2022/05/22 10:34:39;;;;;;;16.58;8.30;;;;;;;;;;4934295;28;20055;-63
2022/05/22 10:37:23;;;;;;;17.88;10.07;;;;;;;;;;4934078;28;20042;-63
2022/05/22 10:39:49;;;;;;;16.10;8.75;;;;;;;;;;4934591;29;20032;-62
2022/05/22 10:42:46;;;;;;;17.15;8.70;;;;;;;;;;4934106;29;20024;-60
2022/05/22 10:45:32;;;;;;;15.48;8.55;;;;;;;;;;4934258;29;20031;-60
2022/05/22 10:48:06;;;;;;;17.67;9.65;;;;;;;;;;4999546;28;20075;-57
2022/05/22 10:50:32;;;;;;;19.80;9.82;;;;;;;;;;4935473;28;20103;-61
2022/05/22 10:52:58;;;;;;;17.98;9.68;;;;;;;;;;4953203;28;20526;-57
2022/05/22 10:55:32;;;;;;;18.10;9.52;;;;;;;;;;5019664;28;20043;-58
2022/05/22 10:58:02;;;;;;;18.48;9.30;;;;;;;;;;4952778;28;20110;-60
2022/05/22 11:00:28;;;;;;;20.17;9.18;;;;;;;;;;4952980;29;20099;-60
2022/05/22 11:02:54;;;;;;;16.77;8.70;;;;;;;;;;4953762;28;20368;-59
2022/05/22 11:05:28;;;;;;;19.20;9.13;;;;;;;;;;4953486;28;20031;-59
2022/05/22 11:07:55;;;;;;;17.50;8.90;;;;;;;;;;4952861;28;20274;-62
2022/05/22 11:10:47;;;;;;;15.48;8.50;;;;;;;;;;4953126;28;20027;-60
2022/05/22 11:13:20;;;;;;;20.67;10.73;;;;;;;;;;4953878;28;20036;-59
2022/05/22 11:15:46;;;;;;;19.70;10.75;;;;;;;;;;5019167;28;20471;-62
2022/05/22 11:18:19;;;;;;;16.10;8.75;;;;;;;;;;4952735;28;20039;-62
2022/05/22 11:20:48;;;;;;;18.25;9.35;;;;;;;;;;5019982;28;20475;-61
2022/05/22 11:23:13;;;;;;;;;;;;;;;;;;4953172;29;20031;-59
2022/05/22 11:25:39;;;;;;;16.15;8.60;;;;;;;;;;4953411;28;19960;-60
2022/05/22 11:28:24;;;;;;;19.67;8.80;;;;;;;;;;4953137;28;20102;-59
2022/05/22 11:30:56;;;;;;;18.13;8.80;;;;;;;;;;4953114;28;20430;-59
2022/05/22 11:33:22;;;;;;;17.38;9.27;;;;;;;;;;4952576;29;20063;-59
2022/05/22 11:36:00;;;;;;;17.70;9.00;;;;;;;;;;4952514;28;20054;-62
2022/05/22 11:38:30;;;;;;;16.50;9.10;;;;;;;;;;4952579;29;20027;-60
2022/05/22 11:40:59;;;;;;;16.77;9.20;;;;;;;;;;4952541;28;20055;-61
2022/05/22 11:43:44;;;;;;;21.33;11.20;;;;;;;;;;4952026;29;20069;-57
2022/05/22 11:46:29;;;;;;;19.58;10.05;;;;;;;;;;4952171;28;20027;-61
2022/05/22 11:48:55;;;;;;;18.13;10.18;;;;;;;;;;4952334;29;20027;-62
2022/05/22 11:51:46;;;;;;;17.15;9.88;;;;;;;;;;4952434;28;20027;-56
2022/05/22 11:54:31;;;;;;;20.85;10.63;;;;;;;;;;4952848;29;20121;-60
2022/05/22 11:57:12;;;;;;;18.30;9.90;;;;;;;;;;4952288;28;20028;-56
2022/05/22 11:59:38;;;;;;;17.35;10.00;;;;;;;;;;4952350;29;20076;-61
2022/05/22 12:02:04;;;;;;;18.30;10.23;;;;;;;;;;5018336;28;20497;-59
2022/05/22 12:04:42;;;;;;;16.63;10.48;;;;;;;;;;4951996;28;20023;-62
2022/05/22 12:07:27;;;;;;;15.20;9.30;;;;;;;;;;4952079;29;20387;-57
2022/05/22 12:09:56;;;;;;;15.85;9.48;;;;;;;;;;4952118;28;20024;-55
2022/05/22 12:12:23;;;;;;;19.52;10.10;;;;;;;;;;4951630;29;20027;-59
2022/05/22 12:15:07;;;;;;;15.90;10.15;;;;;;;;;;4951825;29;20058;-60
2022/05/22 12:17:36;;;;;;;16.27;9.85;;;;;;;;;;4951586;29;20031;-58
2022/05/22 12:20:02;;;;;;;17.60;10.45;;;;;;;;;;4952104;29;20095;-58
2022/05/22 12:25:27;;;;;;;16.75;9.35;;;;;;;;;;4952114;28;20047;-57
2022/05/22 12:27:54;;;;;;;18.08;9.40;;;;;;;;;;4951495;29;20031;-58
2022/05/22 12:30:20;;;;;;;16.45;9.32;;;;;;;;;;4951857;29;20035;-59
2022/05/22 12:32:52;;;;;;;16.20;9.52;;;;;;;;;;4951466;28;20024;-59
2022/05/22 12:35:18;;;;;;;16.10;9.82;;;;;;;;;;4951740;28;20034;-61
2022/05/22 12:38:07;;;;;;;18.77;9.95;;;;;;;;;;4951513;29;20109;-58
2022/05/22 12:40:36;;;;;;;16.45;9.68;;;;;;;;;;4954209;28;20047;-60
2022/05/22 12:43:04;;;;;;;18.00;10.35;;;;;;;;;;4951634;29;20545;-61
2022/05/22 12:45:30;;;;;;;15.73;9.70;;;;;;;;;;4951609;29;20442;-61
2022/05/22 12:48:09;;;;;;;16.35;10.50;;;;;;;;;;4962011;23;20058;-60
2022/05/22 12:50:36;;;;;;;17.25;10.63;;;;;;;;;;4950528;28;20130;-61
2022/05/22 12:53:02;;;;;;;15.98;10.23;;;;;;;;;;4951027;28;20028;-61
2022/05/22 12:55:31;;;;;;;18.30;10.07;;;;;;;;;;4950039;29;20122;-62
2022/05/22 12:58:01;;;;;;;17.73;10.13;;;;;;;;;;4950702;28;20435;-61
2022/05/22 13:00:36;;;;;;;20.35;10.40;;;;;;;;;;4950804;29;20031;-61
2022/05/22 13:03:23;;;;;;;17.02;10.52;;;;;;;;;;4950774;29;20023;-61
2022/05/22 13:05:57;;;;;;;19.42;10.98;;;;;;;;;;4951520;29;20024;-61
2022/05/22 13:08:27;;;;;;;15.93;10.77;;;;;;;;;;5016466;28;20026;-61
2022/05/22 13:10:54;;;;;;;17.70;10.45;;;;;;;;;;4951140;28;20056;-60
2022/05/22 13:13:26;;;;;;;17.25;9.80;;;;;;;;;;4950764;28;20134;-62
2022/05/22 13:15:58;;;;;;;16.40;9.88;;;;;;;;;;4951272;29;20089;-61
2022/05/22 13:18:24;;;;;;;17.02;9.73;;;;;;;;;;4950752;29;20055;-60
2022/05/22 13:20:51;;;;;;;18.33;10.68;;;;;;;;;;4950631;29;20027;-61
2022/05/22 13:23:23;;;;;;;16.90;10.18;;;;;;;;;;4950311;29;20034;-61
2022/05/22 13:25:51;;;;;;;16.38;9.98;;;;;;;;;;4931920;28;20173;-60
2022/05/22 13:28:19;;;;;;;17.50;9.80;;;;;;;;;;4944119;28;20027;-59
2022/05/22 13:30:45;;;;;;;;;;;;;;;;;;4942860;29;20038;-57
2022/05/22 13:33:15;;;;;;;16.98;10.02;;;;;;;;;;4940912;28;19906;-60
2022/05/22 13:35:51;;;;;;;16.48;10.48;;;;;;;;;;4592313;28;10000316;-61
2022/05/22 13:38:17;;;;;;;17.73;9.80;;;;;;;;;;4976234;28;20032;-62
2022/05/22 13:41:09;;;;;;;17.30;10.00;;;;;;;;;;4953421;28;20032;-60
2022/05/22 13:44:02;;;;;;;16.80;9.73;;;;;;;;;;5009264;28;20364;-60
2022/05/22 13:46:46;;;;;;;17.60;9.80;;;;;;;;;;4925833;28;20032;-61
2022/05/22 13:49:23;;;;;;;18.30;10.10;;;;;;;;;;4945383;29;20031;-60
2022/05/22 13:52:39;;;;;;;15.88;9.80;;;;;;;;;;4936431;28;20035;-62
2022/05/22 13:54:54;;;;;;;17.25;9.68;;;;;;;;;;4924038;29;20108;-63
2022/05/22 13:57:26;;;;;;;17.63;9.82;;;;;;;;;;4993778;28;20036;-62
2022/05/22 14:00:05;;;;;;;16.95;10.23;;;;;;;;;;4928470;29;20042;-63
2022/05/22 14:02:37;;;;;;;17.33;10.80;;;;;;;;;;4930425;29;20028;-62
2022/05/22 14:05:07;;;;;;;16.27;10.18;;;;;;;;;;4936867;28;20015;-62
2022/05/22 14:07:38;;;;;;;16.08;9.90;;;;;;;;;;4940352;29;20717;-59
2022/05/22 14:10:05;;;;;;;17.23;10.35;;;;;;;;;;4939809;29;20031;-62
2022/05/22 14:12:31;;;;;;;15.40;9.93;;;;;;;;;;5017044;28;20114;-61
2022/05/22 14:14:57;;;;;;;16.85;9.98;;;;;;;;;;4950596;29;20062;-62
2022/05/22 14:17:31;;;;;;;15.98;10.05;;;;;;;;;;4950065;29;20104;-62
2022/05/22 14:20:04;;;;;;;15.45;9.57;;;;;;;;;;5016057;28;20130;-62
2022/05/22 14:22:30;;;;;;;18.33;12.00;;;;;;;;;;4941174;29;20035;-62
2022/05/22 14:24:58;;;;;;;17.15;10.20;;;;;;;;;;4937605;28;20491;-61
2022/05/22 14:27:29;;;;;;;16.35;11.13;;;;;;;;;;4938077;29;20024;-62
2022/05/22 14:30:08;;;;;;;16.52;10.32;;;;;;;;;;5020011;28;20509;-61
2022/05/22 14:32:35;;;;;;;16.17;10.60;;;;;;;;;;5019050;28;20038;-62
2022/05/22 14:35:01;;;;;;;17.80;11.43;;;;;;;;;;4953126;29;20035;-63
2022/05/22 14:37:27;;;;;;;16.70;10.68;;;;;;;;;;4944707;28;20031;-63
2022/05/22 14:39:54;;;;;;;20.67;12.95;;;;;;;;;;4999692;28;20044;-61
2022/05/22 14:42:22;;;;;;;16.65;10.60;;;;;;;;;;4999108;28;20394;-63
2022/05/22 14:44:48;;;;;;;;;;;;;;;;;;4934226;29;20103;-61
2022/05/22 14:47:30;;;;;;;17.02;12.38;;;;;;;;;;4933334;29;19922;-62
2022/05/22 14:49:57;;;;;;;17.88;11.48;;;;;;;;;;4595874;28;10000590;-63
2022/05/22 14:52:27;;;;;;;16.27;10.35;;;;;;;;;;4940317;29;20439;-63
2022/05/22 14:55:16;;;;;;;16.60;10.50;;;;;;;;;;4950067;29;20142;-61
2022/05/22 14:57:45;;;;;;;16.05;10.20;;;;;;;;;;4949524;29;20035;-62
2022/05/22 15:00:18;;;;;;;16.02;10.00;;;;;;;;;;4945742;29;20463;-62
2022/05/22 15:02:50;;;;;;;16.70;10.35;;;;;;;;;;5006793;28;20533;-62